sensor_id;sensor_type;location;lat;lon;timestamp;P1;durP1;ratioP1;P2;durP2;ratioP2
65405;SDS011;52016;51.228;-2.322;2022-11-03T00:02:48;15.13;;;3.17;;
65405;SDS011;52016;51.228;-2.322;2022-11-03T00:06:31;19.65;;;3.80;;
65405;SDS011;52016;51.228;-2.322;2022-11-03T00:10:13;15.35;;;4.28;;
65405;SDS011;52016;51.228;-2.322;2022-11-03T00:13:55;15.45;;;3.88;;
65405;SDS011;52016;51.228;-2.322;2022-11-03T00:17:37;14.77;;;3.80;;
65405;SDS011;52016;51.228;-2.322;2022-11-03T00:21:18;12.70;;;3.85;;
65405;SDS011;52016;51.228;-2.322;2022-11-03T00:25:00;14.52;;;3.33;;
65405;SDS011;52016;51.228;-2.322;2022-11-03T00:28:43;16.48;;;3.33;;
65405;SDS011;52016;51.228;-2.322;2022-11-03T00:32:26;16.55;;;3.33;;
65405;SDS011;52016;51.228;-2.322;2022-11-03T00:36:12;18.05;;;3.42;;
65405;SDS011;52016;51.228;-2.322;2022-11-03T00:39:55;14.45;;;3.08;;
65405;SDS011;52016;51.228;-2.322;2022-11-03T00:43:37;20.70;;;3.67;;
65405;SDS011;52016;51.228;-2.322;2022-11-03T00:47:19;16.60;;;3.50;;
65405;SDS011;52016;51.228;-2.322;2022-11-03T00:51:06;18.13;;;3.75;;
65405;SDS011;52016;51.228;-2.322;2022-11-03T00:54:49;20.38;;;3.45;;
65405;SDS011;52016;51.228;-2.322;2022-11-03T00:58:35;17.25;;;3.05;;
65405;SDS011;52016;51.228;-2.322;2022-11-03T01:02:17;16.42;;;2.95;;
65405;SDS011;52016;51.228;-2.322;2022-11-03T01:05:59;15.43;;;2.83;;
65405;SDS011;52016;51.228;-2.322;2022-11-03T01:10:00;12.63;;;3.40;;
65405;SDS011;52016;51.228;-2.322;2022-11-03T01:13:42;17.77;;;3.75;;
65405;SDS011;52016;51.228;-2.322;2022-11-03T01:17:25;16.08;;;3.60;;
65405;SDS011;52016;51.228;-2.322;2022-11-03T01:21:08;18.23;;;3.75;;
65405;SDS011;52016;51.228;-2.322;2022-11-03T01:24:50;18.67;;;3.70;;
65405;SDS011;52016;51.228;-2.322;2022-11-03T01:28:35;12.75;;;3.20;;
65405;SDS011;52016;51.228;-2.322;2022-11-03T01:32:18;18.02;;;3.53;;
65405;SDS011;52016;51.228;-2.322;2022-11-03T01:36:00;12.32;;;2.60;;
65405;SDS011;52016;51.228;-2.322;2022-11-03T01:39:42;17.00;;;3.10;;
65405;SDS011;52016;51.228;-2.322;2022-11-03T01:43:23;15.82;;;3.05;;
65405;SDS011;52016;51.228;-2.322;2022-11-03T01:47:11;15.20;;;3.45;;
65405;SDS011;52016;51.228;-2.322;2022-11-03T01:51:00;14.50;;;3.30;;
65405;SDS011;52016;51.228;-2.322;2022-11-03T01:54:47;18.35;;;4.30;;
65405;SDS011;52016;51.228;-2.322;2022-11-03T01:58:34;17.45;;;3.47;;
65405;SDS011;52016;51.228;-2.322;2022-11-03T02:02:18;17.52;;;4.05;;
65405;SDS011;52016;51.228;-2.322;2022-11-03T02:06:00;14.88;;;3.47;;
65405;SDS011;52016;51.228;-2.322;2022-11-03T02:09:43;14.27;;;3.33;;
65405;SDS011;52016;51.228;-2.322;2022-11-03T02:13:25;16.88;;;3.40;;
65405;SDS011;52016;51.228;-2.322;2022-11-03T02:17:08;12.85;;;2.83;;
65405;SDS011;52016;51.228;-2.322;2022-11-03T02:20:55;15.50;;;3.17;;
65405;SDS011;52016;51.228;-2.322;2022-11-03T02:29:02;13.23;;;3.17;;
65405;SDS011;52016;51.228;-2.322;2022-11-03T02:32:50;20.42;;;3.25;;
65405;SDS011;52016;51.228;-2.322;2022-11-03T02:36:54;12.93;;;3.05;;
65405;SDS011;52016;51.228;-2.322;2022-11-03T02:40:59;12.38;;;2.90;;
65405;SDS011;52016;51.228;-2.322;2022-11-03T02:44:45;12.93;;;3.23;;
65405;SDS011;52016;51.228;-2.322;2022-11-03T02:48:28;11.02;;;3.15;;
65405;SDS011;52016;51.228;-2.322;2022-11-03T02:56:25;10.98;;;3.00;;
65405;SDS011;52016;51.228;-2.322;2022-11-03T03:00:07;16.05;;;3.33;;
65405;SDS011;52016;51.228;-2.322;2022-11-03T03:03:51;15.85;;;3.70;;
65405;SDS011;52016;51.228;-2.322;2022-11-03T03:07:50;12.57;;;3.55;;
65405;SDS011;52016;51.228;-2.322;2022-11-03T03:11:35;17.58;;;3.47;;
65405;SDS011;52016;51.228;-2.322;2022-11-03T03:15:22;19.58;;;3.90;;
65405;SDS011;52016;51.228;-2.322;2022-11-03T03:23:35;11.17;;;3.30;;
65405;SDS011;52016;51.228;-2.322;2022-11-03T03:27:18;14.88;;;3.75;;
65405;SDS011;52016;51.228;-2.322;2022-11-03T03:31:04;16.30;;;3.17;;
65405;SDS011;52016;51.228;-2.322;2022-11-03T03:34:49;13.18;;;2.95;;
65405;SDS011;52016;51.228;-2.322;2022-11-03T03:38:34;13.35;;;3.03;;
65405;SDS011;52016;51.228;-2.322;2022-11-03T03:42:20;11.18;;;2.95;;
65405;SDS011;52016;51.228;-2.322;2022-11-03T03:46:04;12.50;;;2.85;;
65405;SDS011;52016;51.228;-2.322;2022-11-03T03:49:50;13.18;;;3.03;;
65405;SDS011;52016;51.228;-2.322;2022-11-03T03:53:32;10.38;;;2.67;;
65405;SDS011;52016;51.228;-2.322;2022-11-03T03:57:14;14.15;;;2.70;;
65405;SDS011;52016;51.228;-2.322;2022-11-03T04:00:58;10.32;;;2.83;;
65405;SDS011;52016;51.228;-2.322;2022-11-03T04:04:40;10.50;;;2.80;;
65405;SDS011;52016;51.228;-2.322;2022-11-03T04:08:22;11.60;;;2.22;;
65405;SDS011;52016;51.228;-2.322;2022-11-03T04:12:04;10.10;;;3.08;;
65405;SDS011;52016;51.228;-2.322;2022-11-03T04:16:04;11.23;;;2.85;;
65405;SDS011;52016;51.228;-2.322;2022-11-03T04:20:08;10.65;;;2.28;;
65405;SDS011;52016;51.228;-2.322;2022-11-03T04:24:12;10.55;;;2.25;;
65405;SDS011;52016;51.228;-2.322;2022-11-03T04:27:53;11.10;;;2.55;;
65405;SDS011;52016;51.228;-2.322;2022-11-03T04:31:35;11.57;;;2.10;;
65405;SDS011;52016;51.228;-2.322;2022-11-03T04:39:12;9.45;;;2.45;;
65405;SDS011;52016;51.228;-2.322;2022-11-03T04:42:59;14.15;;;2.50;;
65405;SDS011;52016;51.228;-2.322;2022-11-03T04:46:40;7.50;;;1.98;;
65405;SDS011;52016;51.228;-2.322;2022-11-03T04:50:24;9.45;;;2.22;;
65405;SDS011;52016;51.228;-2.322;2022-11-03T04:54:14;9.75;;;2.50;;
65405;SDS011;52016;51.228;-2.322;2022-11-03T04:57:59;6.43;;;1.80;;
65405;SDS011;52016;51.228;-2.322;2022-11-03T05:01:50;7.65;;;2.33;;
65405;SDS011;52016;51.228;-2.322;2022-11-03T05:05:32;9.82;;;2.53;;
65405;SDS011;52016;51.228;-2.322;2022-11-03T05:09:14;10.20;;;2.30;;
65405;SDS011;52016;51.228;-2.322;2022-11-03T05:13:00;8.30;;;2.20;;
65405;SDS011;52016;51.228;-2.322;2022-11-03T05:16:42;10.98;;;2.50;;
65405;SDS011;52016;51.228;-2.322;2022-11-03T05:24:17;10.70;;;2.10;;
65405;SDS011;52016;51.228;-2.322;2022-11-03T05:28:01;9.93;;;2.42;;
65405;SDS011;52016;51.228;-2.322;2022-11-03T05:31:43;9.65;;;2.40;;
65405;SDS011;52016;51.228;-2.322;2022-11-03T05:35:28;9.77;;;2.53;;
65405;SDS011;52016;51.228;-2.322;2022-11-03T05:39:16;7.50;;;2.38;;
65405;SDS011;52016;51.228;-2.322;2022-11-03T05:43:09;9.20;;;2.05;;
65405;SDS011;52016;51.228;-2.322;2022-11-03T05:46:53;8.02;;;2.47;;
65405;SDS011;52016;51.228;-2.322;2022-11-03T05:50:36;7.18;;;2.22;;
65405;SDS011;52016;51.228;-2.322;2022-11-03T05:54:23;6.15;;;1.70;;
65405;SDS011;52016;51.228;-2.322;2022-11-03T05:58:26;7.72;;;2.20;;
65405;SDS011;52016;51.228;-2.322;2022-11-03T06:14:11;10.02;;;2.20;;
65405;SDS011;52016;51.228;-2.322;2022-11-03T06:18:15;9.60;;;2.15;;
65405;SDS011;52016;51.228;-2.322;2022-11-03T06:22:02;6.60;;;2.25;;
65405;SDS011;52016;51.228;-2.322;2022-11-03T06:25:51;10.35;;;2.33;;
65405;SDS011;52016;51.228;-2.322;2022-11-03T06:29:35;9.95;;;2.08;;
65405;SDS011;52016;51.228;-2.322;2022-11-03T06:33:27;8.77;;;1.95;;
65405;SDS011;52016;51.228;-2.322;2022-11-03T06:41:16;5.35;;;1.55;;
65405;SDS011;52016;51.228;-2.322;2022-11-03T06:45:11;7.15;;;1.60;;
65405;SDS011;52016;51.228;-2.322;2022-11-03T06:48:59;6.53;;;1.70;;
65405;SDS011;52016;51.228;-2.322;2022-11-03T06:52:46;5.35;;;1.52;;
65405;SDS011;52016;51.228;-2.322;2022-11-03T06:56:34;6.25;;;1.88;;
65405;SDS011;52016;51.228;-2.322;2022-11-03T07:00:24;5.00;;;1.92;;
65405;SDS011;52016;51.228;-2.322;2022-11-03T07:08:02;6.93;;;1.90;;
65405;SDS011;52016;51.228;-2.322;2022-11-03T07:12:00;7.75;;;2.30;;
65405;SDS011;52016;51.228;-2.322;2022-11-03T07:15:42;8.40;;;2.10;;
65405;SDS011;52016;51.228;-2.322;2022-11-03T07:19:26;5.43;;;1.98;;
65405;SDS011;52016;51.228;-2.322;2022-11-03T07:23:15;6.72;;;1.90;;
65405;SDS011;52016;51.228;-2.322;2022-11-03T07:31:19;10.63;;;2.35;;
65405;SDS011;52016;51.228;-2.322;2022-11-03T07:35:49;14.27;;;2.72;;
65405;SDS011;52016;51.228;-2.322;2022-11-03T07:39:31;8.00;;;2.20;;
65405;SDS011;52016;51.228;-2.322;2022-11-03T07:47:00;8.70;;;2.70;;
65405;SDS011;52016;51.228;-2.322;2022-11-03T07:50:43;6.47;;;2.22;;
65405;SDS011;52016;51.228;-2.322;2022-11-03T07:54:29;9.75;;;2.25;;
65405;SDS011;52016;51.228;-2.322;2022-11-03T07:58:35;6.00;;;1.98;;
65405;SDS011;52016;51.228;-2.322;2022-11-03T08:06:20;10.38;;;4.10;;
65405;SDS011;52016;51.228;-2.322;2022-11-03T08:10:02;7.13;;;3.05;;
65405;SDS011;52016;51.228;-2.322;2022-11-03T08:13:44;6.15;;;1.92;;
65405;SDS011;52016;51.228;-2.322;2022-11-03T08:17:26;9.52;;;1.88;;
65405;SDS011;52016;51.228;-2.322;2022-11-03T08:21:08;5.25;;;2.03;;
65405;SDS011;52016;51.228;-2.322;2022-11-03T08:24:50;4.88;;;1.90;;
65405;SDS011;52016;51.228;-2.322;2022-11-03T08:28:32;5.35;;;1.98;;
65405;SDS011;52016;51.228;-2.322;2022-11-03T08:32:14;5.68;;;1.70;;
65405;SDS011;52016;51.228;-2.322;2022-11-03T08:35:56;3.20;;;1.55;;
65405;SDS011;52016;51.228;-2.322;2022-11-03T08:39:38;6.72;;;2.20;;
65405;SDS011;52016;51.228;-2.322;2022-11-03T08:43:19;6.30;;;1.67;;
65405;SDS011;52016;51.228;-2.322;2022-11-03T08:47:02;9.15;;;1.58;;
65405;SDS011;52016;51.228;-2.322;2022-11-03T08:50:43;7.00;;;2.30;;
65405;SDS011;52016;51.228;-2.322;2022-11-03T08:54:25;7.10;;;2.30;;
65405;SDS011;52016;51.228;-2.322;2022-11-03T08:58:07;4.60;;;1.80;;
65405;SDS011;52016;51.228;-2.322;2022-11-03T09:01:49;3.83;;;1.80;;
65405;SDS011;52016;51.228;-2.322;2022-11-03T09:05:31;3.15;;;1.58;;
65405;SDS011;52016;51.228;-2.322;2022-11-03T09:09:13;5.90;;;1.75;;
65405;SDS011;52016;51.228;-2.322;2022-11-03T09:13:16;6.20;;;2.03;;
65405;SDS011;52016;51.228;-2.322;2022-11-03T09:16:57;7.40;;;2.13;;
65405;SDS011;52016;51.228;-2.322;2022-11-03T09:20:39;7.38;;;2.50;;
65405;SDS011;52016;51.228;-2.322;2022-11-03T09:24:21;5.45;;;1.85;;
65405;SDS011;52016;51.228;-2.322;2022-11-03T09:28:03;5.82;;;1.75;;
65405;SDS011;52016;51.228;-2.322;2022-11-03T09:31:45;5.03;;;1.63;;
65405;SDS011;52016;51.228;-2.322;2022-11-03T09:35:27;3.58;;;1.58;;
65405;SDS011;52016;51.228;-2.322;2022-11-03T09:39:09;5.18;;;1.40;;
65405;SDS011;52016;51.228;-2.322;2022-11-03T09:42:51;6.03;;;2.90;;
65405;SDS011;52016;51.228;-2.322;2022-11-03T09:46:33;4.22;;;2.08;;
65405;SDS011;52016;51.228;-2.322;2022-11-03T09:50:16;5.93;;;2.60;;
65405;SDS011;52016;51.228;-2.322;2022-11-03T09:54:01;4.45;;;1.83;;
65405;SDS011;52016;51.228;-2.322;2022-11-03T09:57:44;5.93;;;1.80;;
65405;SDS011;52016;51.228;-2.322;2022-11-03T10:01:27;3.88;;;1.58;;
65405;SDS011;52016;51.228;-2.322;2022-11-03T10:05:11;5.68;;;1.98;;
65405;SDS011;52016;51.228;-2.322;2022-11-03T10:08:56;5.93;;;1.60;;
65405;SDS011;52016;51.228;-2.322;2022-11-03T10:12:37;5.53;;;2.30;;
65405;SDS011;52016;51.228;-2.322;2022-11-03T10:16:20;4.43;;;2.03;;
65405;SDS011;52016;51.228;-2.322;2022-11-03T10:20:05;6.90;;;1.90;;
65405;SDS011;52016;51.228;-2.322;2022-11-03T10:23:51;5.55;;;1.45;;
65405;SDS011;52016;51.228;-2.322;2022-11-03T10:27:32;10.02;;;1.95;;
65405;SDS011;52016;51.228;-2.322;2022-11-03T10:31:18;6.03;;;2.20;;
65405;SDS011;52016;51.228;-2.322;2022-11-03T10:35:02;8.70;;;2.38;;
65405;SDS011;52016;51.228;-2.322;2022-11-03T10:43:14;5.90;;;2.20;;
65405;SDS011;52016;51.228;-2.322;2022-11-03T10:46:57;9.07;;;2.30;;
65405;SDS011;52016;51.228;-2.322;2022-11-03T10:50:43;7.17;;;2.13;;
65405;SDS011;52016;51.228;-2.322;2022-11-03T10:54:25;6.30;;;1.88;;
65405;SDS011;52016;51.228;-2.322;2022-11-03T10:58:08;5.93;;;2.05;;
65405;SDS011;52016;51.228;-2.322;2022-11-03T11:01:51;5.45;;;2.10;;
65405;SDS011;52016;51.228;-2.322;2022-11-03T11:05:33;7.60;;;3.42;;
65405;SDS011;52016;51.228;-2.322;2022-11-03T11:09:16;5.88;;;2.65;;
65405;SDS011;52016;51.228;-2.322;2022-11-03T11:17:00;7.32;;;1.90;;
65405;SDS011;52016;51.228;-2.322;2022-11-03T11:20:46;13.55;;;4.22;;
65405;SDS011;52016;51.228;-2.322;2022-11-03T11:28:25;9.18;;;2.00;;
65405;SDS011;52016;51.228;-2.322;2022-11-03T11:32:48;5.60;;;1.90;;
65405;SDS011;52016;51.228;-2.322;2022-11-03T11:36:28;5.15;;;2.00;;
65405;SDS011;52016;51.228;-2.322;2022-11-03T11:40:13;4.97;;;2.70;;
65405;SDS011;52016;51.228;-2.322;2022-11-03T11:48:30;8.68;;;2.85;;
65405;SDS011;52016;51.228;-2.322;2022-11-03T11:52:12;5.55;;;2.15;;
65405;SDS011;52016;51.228;-2.322;2022-11-03T11:55:59;5.35;;;2.40;;
65405;SDS011;52016;51.228;-2.322;2022-11-03T11:59:43;6.50;;;2.20;;
65405;SDS011;52016;51.228;-2.322;2022-11-03T12:03:34;5.65;;;2.10;;
65405;SDS011;52016;51.228;-2.322;2022-11-03T12:07:31;4.13;;;1.65;;
65405;SDS011;52016;51.228;-2.322;2022-11-03T12:11:38;6.90;;;1.95;;
65405;SDS011;52016;51.228;-2.322;2022-11-03T12:19:41;5.25;;;1.60;;
65405;SDS011;52016;51.228;-2.322;2022-11-03T12:23:31;6.05;;;1.80;;
65405;SDS011;52016;51.228;-2.322;2022-11-03T12:27:18;12.38;;;1.85;;
65405;SDS011;52016;51.228;-2.322;2022-11-03T12:31:00;7.63;;;1.65;;
65405;SDS011;52016;51.228;-2.322;2022-11-03T12:34:42;6.53;;;1.67;;
65405;SDS011;52016;51.228;-2.322;2022-11-03T12:38:25;3.78;;;1.63;;
65405;SDS011;52016;51.228;-2.322;2022-11-03T12:42:07;6.15;;;1.63;;
65405;SDS011;52016;51.228;-2.322;2022-11-03T12:45:49;9.10;;;1.70;;
65405;SDS011;52016;51.228;-2.322;2022-11-03T12:49:31;4.03;;;1.30;;
65405;SDS011;52016;51.228;-2.322;2022-11-03T12:53:13;5.75;;;1.40;;
65405;SDS011;52016;51.228;-2.322;2022-11-03T12:56:54;5.07;;;1.52;;
65405;SDS011;52016;51.228;-2.322;2022-11-03T13:00:36;6.50;;;1.50;;
65405;SDS011;52016;51.228;-2.322;2022-11-03T13:04:18;7.63;;;1.65;;
65405;SDS011;52016;51.228;-2.322;2022-11-03T13:08:00;7.10;;;1.80;;
65405;SDS011;52016;51.228;-2.322;2022-11-03T13:11:42;5.38;;;1.70;;
65405;SDS011;52016;51.228;-2.322;2022-11-03T13:15:42;5.55;;;1.70;;
65405;SDS011;52016;51.228;-2.322;2022-11-03T13:19:24;4.97;;;1.60;;
65405;SDS011;52016;51.228;-2.322;2022-11-03T13:23:05;7.05;;;1.60;;
65405;SDS011;52016;51.228;-2.322;2022-11-03T13:26:48;1.90;;;0.95;;
65405;SDS011;52016;51.228;-2.322;2022-11-03T13:30:30;0.98;;;0.65;;
65405;SDS011;52016;51.228;-2.322;2022-11-03T13:34:13;2.40;;;0.90;;
65405;SDS011;52016;51.228;-2.322;2022-11-03T13:37:55;0.73;;;0.73;;
65405;SDS011;52016;51.228;-2.322;2022-11-03T13:41:37;0.80;;;0.70;;
65405;SDS011;52016;51.228;-2.322;2022-11-03T13:45:19;3.78;;;0.70;;
65405;SDS011;52016;51.228;-2.322;2022-11-03T13:49:01;1.92;;;0.80;;
65405;SDS011;52016;51.228;-2.322;2022-11-03T13:53:02;1.20;;;0.93;;
65405;SDS011;52016;51.228;-2.322;2022-11-03T13:57:04;6.40;;;2.70;;
65405;SDS011;52016;51.228;-2.322;2022-11-03T14:01:06;3.13;;;1.25;;
65405;SDS011;52016;51.228;-2.322;2022-11-03T14:04:48;3.38;;;1.10;;
65405;SDS011;52016;51.228;-2.322;2022-11-03T14:08:29;5.07;;;1.33;;
65405;SDS011;52016;51.228;-2.322;2022-11-03T14:12:11;2.85;;;1.20;;
65405;SDS011;52016;51.228;-2.322;2022-11-03T14:16:11;3.13;;;1.20;;
65405;SDS011;52016;51.228;-2.322;2022-11-03T14:19:53;3.58;;;1.60;;
65405;SDS011;52016;51.228;-2.322;2022-11-03T14:23:44;4.57;;;1.42;;
65405;SDS011;52016;51.228;-2.322;2022-11-03T14:27:25;3.80;;;1.70;;
65405;SDS011;52016;51.228;-2.322;2022-11-03T14:31:07;5.38;;;1.80;;
65405;SDS011;52016;51.228;-2.322;2022-11-03T14:34:49;3.70;;;2.08;;
65405;SDS011;52016;51.228;-2.322;2022-11-03T14:38:31;6.38;;;2.08;;
65405;SDS011;52016;51.228;-2.322;2022-11-03T14:42:13;5.00;;;2.05;;
65405;SDS011;52016;51.228;-2.322;2022-11-03T14:45:56;8.98;;;1.77;;
65405;SDS011;52016;51.228;-2.322;2022-11-03T14:49:38;4.72;;;1.35;;
65405;SDS011;52016;51.228;-2.322;2022-11-03T14:53:20;4.03;;;1.50;;
65405;SDS011;52016;51.228;-2.322;2022-11-03T14:57:02;3.35;;;1.60;;
65405;SDS011;52016;51.228;-2.322;2022-11-03T15:00:45;5.82;;;2.08;;
65405;SDS011;52016;51.228;-2.322;2022-11-03T15:04:27;3.40;;;1.40;;
65405;SDS011;52016;51.228;-2.322;2022-11-03T15:08:13;3.10;;;1.27;;
65405;SDS011;52016;51.228;-2.322;2022-11-03T15:11:56;4.38;;;1.40;;
65405;SDS011;52016;51.228;-2.322;2022-11-03T15:15:37;4.03;;;1.50;;
65405;SDS011;52016;51.228;-2.322;2022-11-03T15:19:21;4.55;;;1.30;;
65405;SDS011;52016;51.228;-2.322;2022-11-03T15:23:03;7.25;;;2.97;;
65405;SDS011;52016;51.228;-2.322;2022-11-03T15:27:06;17.40;;;5.53;;
65405;SDS011;52016;51.228;-2.322;2022-11-03T15:30:48;4.88;;;2.45;;
65405;SDS011;52016;51.228;-2.322;2022-11-03T15:34:30;15.15;;;6.70;;
65405;SDS011;52016;51.228;-2.322;2022-11-03T15:38:11;10.95;;;6.30;;
65405;SDS011;52016;51.228;-2.322;2022-11-03T15:41:53;9.93;;;5.80;;
65405;SDS011;52016;51.228;-2.322;2022-11-03T15:45:36;8.00;;;5.00;;
65405;SDS011;52016;51.228;-2.322;2022-11-03T15:49:18;8.07;;;4.85;;
65405;SDS011;52016;51.228;-2.322;2022-11-03T15:53:00;9.50;;;5.00;;
65405;SDS011;52016;51.228;-2.322;2022-11-03T15:56:42;10.27;;;5.13;;
65405;SDS011;52016;51.228;-2.322;2022-11-03T16:00:23;16.92;;;8.82;;
65405;SDS011;52016;51.228;-2.322;2022-11-03T16:04:05;30.65;;;14.77;;
65405;SDS011;52016;51.228;-2.322;2022-11-03T16:07:47;12.45;;;6.85;;
65405;SDS011;52016;51.228;-2.322;2022-11-03T16:11:29;12.02;;;6.35;;
65405;SDS011;52016;51.228;-2.322;2022-11-03T16:15:11;12.07;;;5.70;;
65405;SDS011;52016;51.228;-2.322;2022-11-03T16:18:52;9.60;;;5.70;;
65405;SDS011;52016;51.228;-2.322;2022-11-03T16:22:34;9.52;;;5.75;;
65405;SDS011;52016;51.228;-2.322;2022-11-03T16:26:17;9.13;;;5.45;;
65405;SDS011;52016;51.228;-2.322;2022-11-03T16:30:02;13.27;;;6.68;;
65405;SDS011;52016;51.228;-2.322;2022-11-03T16:33:43;15.23;;;9.30;;
65405;SDS011;52016;51.228;-2.322;2022-11-03T16:37:25;14.93;;;10.20;;
65405;SDS011;52016;51.228;-2.322;2022-11-03T16:41:09;14.77;;;10.95;;
65405;SDS011;52016;51.228;-2.322;2022-11-03T16:44:51;16.17;;;9.20;;
65405;SDS011;52016;51.228;-2.322;2022-11-03T16:48:32;11.77;;;6.32;;
65405;SDS011;52016;51.228;-2.322;2022-11-03T16:52:14;9.48;;;5.35;;
65405;SDS011;52016;51.228;-2.322;2022-11-03T16:55:56;14.45;;;6.47;;
65405;SDS011;52016;51.228;-2.322;2022-11-03T16:59:38;9.18;;;5.13;;
65405;SDS011;52016;51.228;-2.322;2022-11-03T17:03:19;13.65;;;8.07;;
65405;SDS011;52016;51.228;-2.322;2022-11-03T17:07:01;17.23;;;10.98;;
65405;SDS011;52016;51.228;-2.322;2022-11-03T17:10:43;30.75;;;13.90;;
65405;SDS011;52016;51.228;-2.322;2022-11-03T17:14:25;21.77;;;14.57;;
65405;SDS011;52016;51.228;-2.322;2022-11-03T17:18:07;25.48;;;16.58;;
65405;SDS011;52016;51.228;-2.322;2022-11-03T17:21:49;24.58;;;14.05;;
65405;SDS011;52016;51.228;-2.322;2022-11-03T17:25:31;47.97;;;28.98;;
65405;SDS011;52016;51.228;-2.322;2022-11-03T17:29:15;19.23;;;11.68;;
65405;SDS011;52016;51.228;-2.322;2022-11-03T17:32:59;12.73;;;6.20;;
65405;SDS011;52016;51.228;-2.322;2022-11-03T17:36:47;14.32;;;5.78;;
65405;SDS011;52016;51.228;-2.322;2022-11-03T17:40:28;12.02;;;4.47;;
65405;SDS011;52016;51.228;-2.322;2022-11-03T17:44:11;7.95;;;3.80;;
65405;SDS011;52016;51.228;-2.322;2022-11-03T17:47:53;12.85;;;4.30;;
65405;SDS011;52016;51.228;-2.322;2022-11-03T17:51:35;14.15;;;5.35;;
65405;SDS011;52016;51.228;-2.322;2022-11-03T17:55:28;16.45;;;7.32;;
65405;SDS011;52016;51.228;-2.322;2022-11-03T17:59:12;20.08;;;7.93;;
65405;SDS011;52016;51.228;-2.322;2022-11-03T18:02:55;16.52;;;6.25;;
65405;SDS011;52016;51.228;-2.322;2022-11-03T18:06:37;10.55;;;4.90;;
65405;SDS011;52016;51.228;-2.322;2022-11-03T18:10:23;13.93;;;4.97;;
65405;SDS011;52016;51.228;-2.322;2022-11-03T18:14:09;13.32;;;5.05;;
65405;SDS011;52016;51.228;-2.322;2022-11-03T18:17:51;13.57;;;3.83;;
65405;SDS011;52016;51.228;-2.322;2022-11-03T18:21:33;13.57;;;4.60;;
65405;SDS011;52016;51.228;-2.322;2022-11-03T18:25:16;14.30;;;8.07;;
65405;SDS011;52016;51.228;-2.322;2022-11-03T18:28:59;11.30;;;5.38;;
65405;SDS011;52016;51.228;-2.322;2022-11-03T18:32:42;11.65;;;4.13;;
65405;SDS011;52016;51.228;-2.322;2022-11-03T18:36:30;12.32;;;4.38;;
65405;SDS011;52016;51.228;-2.322;2022-11-03T18:40:13;12.27;;;3.53;;
65405;SDS011;52016;51.228;-2.322;2022-11-03T18:43:55;11.77;;;5.35;;
65405;SDS011;52016;51.228;-2.322;2022-11-03T18:47:38;16.55;;;8.20;;
65405;SDS011;52016;51.228;-2.322;2022-11-03T18:51:20;19.27;;;9.55;;
65405;SDS011;52016;51.228;-2.322;2022-11-03T18:55:02;16.88;;;6.88;;
65405;SDS011;52016;51.228;-2.322;2022-11-03T18:58:44;9.55;;;3.70;;
65405;SDS011;52016;51.228;-2.322;2022-11-03T19:02:27;11.18;;;3.70;;
65405;SDS011;52016;51.228;-2.322;2022-11-03T19:06:09;10.75;;;3.63;;
65405;SDS011;52016;51.228;-2.322;2022-11-03T19:09:51;10.20;;;4.20;;
65405;SDS011;52016;51.228;-2.322;2022-11-03T19:13:34;10.23;;;3.90;;
65405;SDS011;52016;51.228;-2.322;2022-11-03T19:17:18;12.10;;;5.72;;
65405;SDS011;52016;51.228;-2.322;2022-11-03T19:21:11;10.95;;;4.10;;
65405;SDS011;52016;51.228;-2.322;2022-11-03T19:24:54;12.77;;;5.00;;
65405;SDS011;52016;51.228;-2.322;2022-11-03T19:28:35;8.70;;;4.00;;
65405;SDS011;52016;51.228;-2.322;2022-11-03T19:36:20;10.43;;;3.85;;
65405;SDS011;52016;51.228;-2.322;2022-11-03T19:40:05;9.60;;;4.90;;
65405;SDS011;52016;51.228;-2.322;2022-11-03T19:43:49;16.25;;;6.72;;
65405;SDS011;52016;51.228;-2.322;2022-11-03T19:47:32;24.85;;;16.20;;
65405;SDS011;52016;51.228;-2.322;2022-11-03T19:51:17;7.97;;;3.70;;
65405;SDS011;52016;51.228;-2.322;2022-11-03T19:55:03;8.45;;;2.97;;
65405;SDS011;52016;51.228;-2.322;2022-11-03T19:58:47;7.70;;;3.33;;
65405;SDS011;52016;51.228;-2.322;2022-11-03T20:02:28;6.05;;;3.80;;
65405;SDS011;52016;51.228;-2.322;2022-11-03T20:06:10;14.30;;;7.93;;
65405;SDS011;52016;51.228;-2.322;2022-11-03T20:09:59;8.80;;;4.78;;
65405;SDS011;52016;51.228;-2.322;2022-11-03T20:13:42;44.30;;;22.63;;
65405;SDS011;52016;51.228;-2.322;2022-11-03T20:17:24;17.80;;;10.60;;
65405;SDS011;52016;51.228;-2.322;2022-11-03T20:21:06;15.32;;;9.40;;
65405;SDS011;52016;51.228;-2.322;2022-11-03T20:24:55;23.35;;;13.20;;
65405;SDS011;52016;51.228;-2.322;2022-11-03T20:28:40;13.98;;;7.72;;
65405;SDS011;52016;51.228;-2.322;2022-11-03T20:32:22;26.15;;;12.15;;
65405;SDS011;52016;51.228;-2.322;2022-11-03T20:36:04;27.45;;;13.00;;
65405;SDS011;52016;51.228;-2.322;2022-11-03T20:39:46;19.90;;;11.07;;
65405;SDS011;52016;51.228;-2.322;2022-11-03T20:43:29;21.85;;;12.02;;
65405;SDS011;52016;51.228;-2.322;2022-11-03T20:47:14;28.45;;;16.23;;
65405;SDS011;52016;51.228;-2.322;2022-11-03T20:50:57;16.98;;;9.80;;
65405;SDS011;52016;51.228;-2.322;2022-11-03T20:54:40;11.65;;;6.45;;
65405;SDS011;52016;51.228;-2.322;2022-11-03T20:58:23;13.90;;;10.15;;
65405;SDS011;52016;51.228;-2.322;2022-11-03T21:02:11;11.73;;;7.07;;
65405;SDS011;52016;51.228;-2.322;2022-11-03T21:05:53;7.32;;;4.80;;
65405;SDS011;52016;51.228;-2.322;2022-11-03T21:09:35;8.43;;;5.35;;
65405;SDS011;52016;51.228;-2.322;2022-11-03T21:13:18;12.05;;;7.50;;
65405;SDS011;52016;51.228;-2.322;2022-11-03T21:17:00;11.80;;;6.68;;
65405;SDS011;52016;51.228;-2.322;2022-11-03T21:21:00;13.60;;;9.55;;
65405;SDS011;52016;51.228;-2.322;2022-11-03T21:24:42;23.70;;;14.90;;
65405;SDS011;52016;51.228;-2.322;2022-11-03T21:28:24;33.45;;;22.02;;
65405;SDS011;52016;51.228;-2.322;2022-11-03T21:32:08;16.10;;;10.23;;
65405;SDS011;52016;51.228;-2.322;2022-11-03T21:35:52;17.80;;;9.40;;
65405;SDS011;52016;51.228;-2.322;2022-11-03T21:39:34;11.27;;;6.38;;
65405;SDS011;52016;51.228;-2.322;2022-11-03T21:43:16;10.13;;;5.80;;
65405;SDS011;52016;51.228;-2.322;2022-11-03T21:47:16;6.95;;;3.90;;
65405;SDS011;52016;51.228;-2.322;2022-11-03T21:51:01;6.07;;;4.00;;
65405;SDS011;52016;51.228;-2.322;2022-11-03T21:54:43;12.32;;;5.97;;
65405;SDS011;52016;51.228;-2.322;2022-11-03T21:58:25;10.02;;;4.25;;
65405;SDS011;52016;51.228;-2.322;2022-11-03T22:02:08;8.20;;;3.47;;
65405;SDS011;52016;51.228;-2.322;2022-11-03T22:05:52;5.88;;;3.63;;
65405;SDS011;52016;51.228;-2.322;2022-11-03T22:09:40;8.05;;;4.30;;
65405;SDS011;52016;51.228;-2.322;2022-11-03T22:13:21;8.38;;;4.45;;
65405;SDS011;52016;51.228;-2.322;2022-11-03T22:17:03;4.47;;;3.55;;
65405;SDS011;52016;51.228;-2.322;2022-11-03T22:20:47;6.75;;;2.80;;
65405;SDS011;52016;51.228;-2.322;2022-11-03T22:24:47;7.25;;;4.45;;
65405;SDS011;52016;51.228;-2.322;2022-11-03T22:28:48;8.18;;;4.70;;
65405;SDS011;52016;51.228;-2.322;2022-11-03T22:32:50;11.15;;;4.20;;
65405;SDS011;52016;51.228;-2.322;2022-11-03T22:36:34;6.85;;;4.00;;
65405;SDS011;52016;51.228;-2.322;2022-11-03T22:40:16;7.75;;;3.70;;
65405;SDS011;52016;51.228;-2.322;2022-11-03T22:44:16;12.63;;;5.75;;
65405;SDS011;52016;51.228;-2.322;2022-11-03T22:48:17;9.93;;;5.05;;
65405;SDS011;52016;51.228;-2.322;2022-11-03T22:51:59;27.50;;;9.02;;
65405;SDS011;52016;51.228;-2.322;2022-11-03T22:55:41;6.82;;;4.07;;
65405;SDS011;52016;51.228;-2.322;2022-11-03T22:59:23;7.95;;;3.42;;
65405;SDS011;52016;51.228;-2.322;2022-11-03T23:03:04;6.25;;;4.38;;
65405;SDS011;52016;51.228;-2.322;2022-11-03T23:06:47;7.28;;;3.92;;
65405;SDS011;52016;51.228;-2.322;2022-11-03T23:10:28;6.63;;;4.13;;
65405;SDS011;52016;51.228;-2.322;2022-11-03T23:14:11;8.73;;;3.92;;
65405;SDS011;52016;51.228;-2.322;2022-11-03T23:17:53;13.45;;;6.93;;
65405;SDS011;52016;51.228;-2.322;2022-11-03T23:21:53;4.93;;;3.63;;
65405;SDS011;52016;51.228;-2.322;2022-11-03T23:25:35;8.23;;;3.50;;